createdAt,value
2019-01-12T00:00:50.609Z,3.38
2019-01-12T00:03:19.719Z,3.24
2019-01-12T00:05:48.775Z,3.24
2019-01-12T00:11:21.842Z,3.25
2019-01-12T00:14:00.065Z,3.25
2019-01-12T00:19:22.342Z,3.38
2019-01-12T00:21:53.845Z,3.48
2019-01-12T00:29:39.576Z,3.47
2019-01-12T00:32:08.530Z,3.41
2019-01-12T00:34:38.475Z,3.45
2019-01-12T00:37:09.333Z,3.40
2019-01-12T00:42:54.569Z,3.44
2019-01-12T00:45:42.672Z,3.38
2019-01-12T00:48:11.727Z,3.35
2019-01-12T00:51:01.495Z,3.34
2019-01-12T00:53:33.123Z,3.46
2019-01-12T00:58:36.878Z,3.48
2019-01-12T01:01:05.981Z,3.50
2019-01-12T01:03:34.996Z,3.46
2019-01-12T01:06:04.438Z,3.52
2019-01-12T01:08:33.263Z,3.57
2019-01-12T01:11:02.223Z,3.58
2019-01-12T01:13:31.138Z,3.54
2019-01-12T01:16:00.114Z,3.49
2019-01-12T01:18:29.086Z,3.53
2019-01-12T01:20:57.993Z,3.61
2019-01-12T01:23:26.928Z,3.60
2019-01-12T01:25:55.895Z,3.60
2019-01-12T01:28:24.843Z,3.51
2019-01-12T01:30:53.796Z,3.56
2019-01-12T01:33:27.954Z,3.62
2019-01-12T01:35:53.507Z,3.60
2019-01-12T01:38:22.460Z,3.62
2019-01-12T01:40:51.426Z,3.68
2019-01-12T01:43:20.382Z,3.73
2019-01-12T01:45:49.356Z,3.79
2019-01-12T01:48:18.297Z,3.77
2019-01-12T01:50:47.166Z,3.74
2019-01-12T01:53:16.088Z,3.80
2019-01-12T01:55:44.923Z,3.80
2019-01-12T01:58:13.864Z,3.81
2019-01-12T02:00:42.875Z,3.87
2019-01-12T02:03:11.901Z,3.89
2019-01-12T02:05:40.765Z,3.93
2019-01-12T02:08:09.782Z,4.03
2019-01-12T02:10:38.725Z,4.01
2019-01-12T02:13:07.720Z,3.95
2019-01-12T02:15:36.659Z,3.90
2019-01-12T02:18:05.756Z,3.89
2019-01-12T02:20:34.698Z,3.85
2019-01-12T02:23:03.662Z,3.89
2019-01-12T02:25:32.496Z,3.99
2019-01-12T02:28:01.494Z,3.94
2019-01-12T02:30:30.352Z,4.00
2019-01-12T02:32:59.324Z,4.05
2019-01-12T02:35:28.262Z,4.01
2019-01-12T02:37:57.225Z,4.09
2019-01-12T02:40:26.169Z,3.96
2019-01-12T02:42:55.112Z,3.92
2019-01-12T02:45:24.063Z,3.94
2019-01-12T02:47:53.055Z,3.87
2019-01-12T02:50:21.994Z,3.92
2019-01-12T02:52:50.849Z,3.99
2019-01-12T02:58:51.354Z,3.90
2019-01-12T03:01:20.227Z,3.92
2019-01-12T03:07:33.321Z,4.06
2019-01-12T03:10:02.014Z,3.99
2019-01-12T03:12:30.657Z,4.03
2019-01-12T03:14:59.309Z,4.03
2019-01-12T03:17:27.986Z,4.00
2019-01-12T03:19:56.622Z,4.10
2019-01-12T03:22:25.333Z,4.08
2019-01-12T03:24:53.977Z,4.02
2019-01-12T03:27:22.613Z,4.00
2019-01-12T03:29:51.328Z,4.12
2019-01-12T03:32:20.009Z,4.13
2019-01-12T03:34:48.618Z,4.25
2019-01-12T03:37:17.232Z,4.11
2019-01-12T03:39:45.879Z,4.04
2019-01-12T03:42:14.521Z,4.09
2019-01-12T03:44:43.164Z,4.07
2019-01-12T03:47:11.884Z,4.10
2019-01-12T03:49:40.516Z,4.05
2019-01-12T03:52:09.245Z,3.95
2019-01-12T03:54:37.870Z,4.04
2019-01-12T03:57:06.624Z,4.06
2019-01-12T03:59:35.298Z,4.08
2019-01-12T04:02:03.964Z,4.17
2019-01-12T04:04:32.675Z,4.22
2019-01-12T04:07:01.274Z,4.22
2019-01-12T04:09:29.910Z,4.34
2019-01-12T04:11:58.538Z,4.38
2019-01-12T04:14:27.188Z,4.45
2019-01-12T04:16:55.898Z,4.41
2019-01-12T04:19:24.536Z,4.47
2019-01-12T04:21:53.191Z,4.41
2019-01-12T04:24:21.847Z,4.45
2019-01-12T04:26:50.537Z,4.41
2019-01-12T04:29:19.203Z,4.50
2019-01-12T04:31:47.902Z,4.50
2019-01-12T04:34:16.670Z,4.59
2019-01-12T04:36:45.330Z,4.67
2019-01-12T04:39:13.990Z,4.65
2019-01-12T04:41:42.601Z,4.63
2019-01-12T04:44:11.340Z,4.59
2019-01-12T04:46:40.064Z,4.62
2019-01-12T04:49:08.685Z,4.57
2019-01-12T04:51:37.454Z,4.74
2019-01-12T04:54:06.216Z,4.80
2019-01-12T04:56:34.896Z,4.74
2019-01-12T04:59:03.515Z,4.79
2019-01-12T05:01:32.127Z,4.75
2019-01-12T05:04:00.778Z,4.84
2019-01-12T05:06:29.483Z,4.85
2019-01-12T05:08:58.120Z,4.81
2019-01-12T05:11:26.751Z,4.75
2019-01-12T05:14:14.623Z,4.87
2019-01-12T05:19:10.543Z,4.92
2019-01-12T05:21:39.180Z,4.84
2019-01-12T05:24:07.794Z,4.87
2019-01-12T05:26:36.462Z,4.87
2019-01-12T05:29:05.190Z,4.92
2019-01-12T05:31:33.892Z,4.83
2019-01-12T05:34:02.539Z,4.93
2019-01-12T05:36:31.198Z,4.95
2019-01-12T05:38:59.843Z,4.91
2019-01-12T05:41:28.475Z,4.92
2019-01-12T05:43:57.093Z,4.84
2019-01-12T05:46:25.717Z,4.91
2019-01-12T05:48:54.354Z,4.83
2019-01-12T05:51:23.067Z,4.87
2019-01-12T05:53:51.679Z,4.91
2019-01-12T05:56:20.378Z,4.86
2019-01-12T05:58:49.077Z,4.88
2019-01-12T06:01:17.749Z,4.98
2019-01-12T06:03:46.369Z,4.94
2019-01-12T06:06:14.994Z,5.00
2019-01-12T06:08:43.612Z,5.06
2019-01-12T06:11:12.366Z,5.10
2019-01-12T06:13:41.005Z,5.08
2019-01-12T06:16:09.776Z,5.13
2019-01-12T06:18:38.412Z,5.15
2019-01-12T06:21:07.095Z,5.21
2019-01-12T06:23:54.953Z,5.24
2019-01-12T06:26:23.718Z,5.29
2019-01-12T06:28:52.379Z,5.32
2019-01-12T06:31:21.080Z,5.41
2019-01-12T06:33:49.743Z,5.35
2019-01-12T06:36:18.497Z,5.34
2019-01-12T06:38:47.127Z,5.41
2019-01-12T06:41:15.765Z,5.40
2019-01-12T06:43:44.450Z,5.32
2019-01-12T06:46:13.090Z,5.36
2019-01-12T06:48:41.724Z,5.37
2019-01-12T06:51:10.431Z,5.23
2019-01-12T06:53:39.183Z,5.32
2019-01-12T06:56:10.998Z,5.21
2019-01-12T06:58:38.291Z,5.37
2019-01-12T07:01:06.914Z,5.28
2019-01-12T07:03:35.645Z,5.23
2019-01-12T07:06:04.288Z,5.27
2019-01-12T07:08:33.031Z,5.25
2019-01-12T07:11:01.637Z,5.27
2019-01-12T07:13:30.354Z,5.21
2019-01-12T07:15:58.999Z,5.03
2019-01-12T07:18:27.640Z,4.98
2019-01-12T07:20:56.257Z,5.00
2019-01-12T07:23:24.881Z,5.02
2019-01-12T07:25:53.578Z,4.98
2019-01-12T07:28:22.300Z,4.95
2019-01-12T07:30:50.991Z,4.95
2019-01-12T07:33:19.611Z,4.99
2019-01-12T07:35:48.267Z,5.08
2019-01-12T07:38:16.902Z,4.99
2019-01-12T07:40:45.558Z,5.04
2019-01-12T07:43:14.180Z,5.08
2019-01-12T07:45:42.856Z,4.99
2019-01-12T07:48:11.510Z,5.03
2019-01-12T07:50:40.159Z,5.08
2019-01-12T07:53:08.821Z,5.11
2019-01-12T07:55:37.500Z,5.21
2019-01-12T07:58:06.288Z,5.14
2019-01-12T08:00:34.933Z,5.07
2019-01-12T08:03:03.706Z,5.18
2019-01-12T08:05:32.328Z,5.18
2019-01-12T08:10:59.893Z,5.25
2019-01-12T08:13:28.668Z,5.34
2019-01-12T08:15:57.314Z,5.26
2019-01-12T08:18:25.934Z,5.34
2019-01-12T08:20:54.556Z,5.49
2019-01-12T08:23:23.188Z,5.57
2019-01-12T08:25:51.895Z,5.61
2019-01-12T08:28:20.529Z,5.67
2019-01-12T08:30:49.200Z,5.86
2019-01-12T08:33:17.814Z,5.84
2019-01-12T08:35:46.651Z,5.72
2019-01-12T08:38:15.350Z,5.82
2019-01-12T08:40:43.998Z,5.69
2019-01-12T08:43:12.626Z,5.74
2019-01-12T08:45:41.282Z,5.75
2019-01-12T08:48:09.965Z,5.79
2019-01-12T08:50:38.574Z,5.89
2019-01-12T08:53:07.334Z,5.83
2019-01-12T08:55:35.943Z,5.98
2019-01-12T08:58:04.650Z,6.08
2019-01-12T09:00:33.269Z,6.16
2019-01-12T09:03:01.968Z,6.06
2019-01-12T09:05:30.720Z,6.14
2019-01-12T09:07:59.358Z,6.20
2019-01-12T09:10:28.077Z,6.20
2019-01-12T09:12:56.792Z,6.16
2019-01-12T09:15:25.442Z,6.11
2019-01-12T09:18:14.856Z,6.14
2019-01-12T09:20:43.662Z,6.12
2019-01-12T09:23:57.750Z,6.20
2019-01-12T09:25:43.883Z,6.22
2019-01-12T09:28:12.613Z,6.30
2019-01-12T09:30:41.374Z,6.24
2019-01-12T09:33:10.156Z,6.27
2019-01-12T09:35:38.839Z,6.35
2019-01-12T09:38:07.544Z,6.35
2019-01-12T09:40:36.411Z,6.39
2019-01-12T09:43:05.221Z,6.40
2019-01-12T09:45:33.897Z,6.39
2019-01-12T09:48:02.747Z,6.26
2019-01-12T09:50:31.412Z,6.28
2019-01-12T09:53:00.115Z,6.27
2019-01-12T09:55:31.297Z,6.37
2019-01-12T09:57:59.976Z,6.39
2019-01-12T10:00:28.739Z,6.47
2019-01-12T10:02:57.580Z,6.46
2019-01-12T10:05:26.351Z,6.54
2019-01-12T10:07:55.095Z,6.39
2019-01-12T10:10:23.965Z,6.40
2019-01-12T10:12:52.729Z,6.42
2019-01-12T10:15:21.601Z,6.43
2019-01-12T10:17:50.306Z,6.41
2019-01-12T10:23:33.323Z,6.37
2019-01-12T10:26:02.055Z,6.24
2019-01-12T10:28:30.732Z,6.28
2019-01-12T10:30:59.521Z,6.30
2019-01-12T10:33:28.244Z,6.33
2019-01-12T10:35:56.930Z,6.49
2019-01-12T10:38:25.570Z,6.36
2019-01-12T10:40:54.286Z,6.35
2019-01-12T10:43:22.927Z,6.38
2019-01-12T10:51:27.542Z,6.31
2019-01-12T10:53:56.179Z,6.30
2019-01-12T10:56:24.796Z,6.21
2019-01-12T10:58:54.267Z,6.23
2019-01-12T11:01:22.997Z,6.14
2019-01-12T11:03:51.616Z,6.12
2019-01-12T11:06:20.514Z,6.11
2019-01-12T11:08:49.135Z,6.12
2019-01-12T11:11:17.822Z,6.12
2019-01-12T11:13:46.523Z,6.09
2019-01-12T11:16:15.305Z,6.10
2019-01-12T11:18:43.950Z,6.03
2019-01-12T11:21:12.653Z,6.13
2019-01-12T11:23:41.379Z,6.08
2019-01-12T11:26:09.979Z,6.06
2019-01-12T11:28:38.620Z,6.05
2019-01-12T11:31:07.362Z,6.05
2019-01-12T11:33:36.008Z,6.11
2019-01-12T11:36:04.733Z,6.18
2019-01-12T11:38:33.346Z,6.41
2019-01-12T11:41:02.006Z,6.40
2019-01-12T11:43:30.715Z,6.39
2019-01-12T11:45:59.380Z,6.47
2019-01-12T11:48:27.987Z,6.43
2019-01-12T11:51:05.322Z,6.47
2019-01-12T11:53:34.297Z,6.49
2019-01-12T11:56:03.056Z,6.33
2019-01-12T11:58:31.922Z,6.17
2019-01-12T12:01:00.531Z,6.22
2019-01-12T12:03:29.243Z,6.32
2019-01-12T12:05:57.877Z,6.22
2019-01-12T12:08:26.566Z,6.22
2019-01-12T12:10:55.325Z,6.24
2019-01-12T12:13:24.012Z,6.19
2019-01-12T12:15:52.654Z,6.28
2019-01-12T12:18:21.369Z,6.34
2019-01-12T12:20:50.144Z,6.43
2019-01-12T12:23:18.886Z,6.47
2019-01-12T12:25:47.557Z,6.36
2019-01-12T12:28:16.280Z,6.30
2019-01-12T12:30:44.944Z,6.33
2019-01-12T12:33:13.788Z,6.34
2019-01-12T12:35:42.445Z,6.38
2019-01-12T12:38:11.167Z,6.34
2019-01-12T12:40:43.329Z,6.32
2019-01-12T12:43:12.039Z,6.29
2019-01-12T12:45:40.803Z,6.26
2019-01-12T12:48:09.853Z,6.24
2019-01-12T12:50:38.635Z,6.31
2019-01-12T12:53:07.384Z,6.28
2019-01-12T12:55:35.985Z,6.33
2019-01-12T12:58:04.954Z,6.35
2019-01-12T13:00:34.405Z,6.36
2019-01-12T13:03:03.174Z,6.32
2019-01-12T13:05:31.893Z,6.19
2019-01-12T13:08:00.688Z,6.19
2019-01-12T13:10:30.951Z,6.10
2019-01-12T13:12:59.672Z,6.21
2019-01-12T13:15:28.361Z,6.07
2019-01-12T13:17:57.028Z,6.11
2019-01-12T13:20:25.731Z,6.05
2019-01-12T13:22:54.344Z,6.12
2019-01-12T13:25:23.078Z,6.05
2019-01-12T13:27:51.833Z,6.01
2019-01-12T13:30:22.682Z,5.99
2019-01-12T13:32:51.587Z,6.05
2019-01-12T13:35:20.842Z,6.03
2019-01-12T13:37:49.797Z,6.02
2019-01-12T13:40:37.808Z,6.09
2019-01-12T13:43:06.649Z,6.12
2019-01-12T13:45:35.406Z,6.00
2019-01-12T13:48:04.333Z,5.95
2019-01-12T13:50:33.105Z,5.97
2019-01-12T13:53:01.791Z,6.09
2019-01-12T13:55:30.489Z,6.06
2019-01-12T13:57:59.182Z,6.10
2019-01-12T14:00:32.681Z,6.05
2019-01-12T14:03:01.786Z,6.09
2019-01-12T14:05:32.120Z,6.10
2019-01-12T14:08:00.973Z,6.17
2019-01-12T14:13:20.607Z,6.04
2019-01-12T14:15:49.672Z,6.00
2019-01-12T14:18:38.606Z,6.14
2019-01-12T14:24:02.319Z,6.01
2019-01-12T14:26:31.893Z,6.02
2019-01-12T14:29:00.989Z,6.00
2019-01-12T14:31:32.595Z,5.98
2019-01-12T14:34:02.511Z,6.01
2019-01-12T14:36:32.681Z,5.99
2019-01-12T14:50:18.956Z,5.91
2019-01-12T14:52:48.068Z,6.01
2019-01-12T14:55:17.894Z,6.03
2019-01-12T14:58:07.481Z,5.89
2019-01-12T15:00:36.670Z,5.97
2019-01-12T15:03:05.701Z,5.95
2019-01-12T15:05:38.753Z,5.95
2019-01-12T15:10:57.578Z,5.99
2019-01-12T15:13:26.242Z,5.97
2019-01-12T15:15:57.464Z,5.94
2019-01-12T15:18:26.698Z,5.89
2019-01-12T15:20:57.194Z,5.80
2019-01-12T15:23:26.045Z,5.83
2019-01-12T15:29:14.094Z,5.81
2019-01-12T15:34:19.089Z,5.70
2019-01-12T15:39:43.832Z,5.76
2019-01-12T15:42:28.113Z,5.75
2019-01-12T15:44:57.190Z,5.70
2019-01-12T15:47:26.187Z,5.78
2019-01-12T15:49:55.078Z,5.76
2019-01-12T15:52:23.823Z,5.73
2019-01-12T15:54:52.578Z,5.75
2019-01-12T15:57:21.297Z,5.79
2019-01-12T15:59:49.931Z,5.73
2019-01-12T16:02:18.702Z,5.68
2019-01-12T16:04:47.379Z,5.68
2019-01-12T16:07:16.059Z,5.69
2019-01-12T16:09:47.222Z,5.68
2019-01-12T16:12:16.253Z,5.64
2019-01-12T16:14:44.925Z,5.72
2019-01-12T16:17:13.682Z,5.66
2019-01-12T16:19:42.531Z,5.63
2019-01-12T16:22:11.188Z,5.70
2019-01-12T16:24:39.824Z,5.69
2019-01-12T16:27:08.595Z,5.87
2019-01-12T16:29:37.227Z,5.75
2019-01-12T16:32:20.827Z,5.79
2019-01-12T16:34:36.341Z,5.68
2019-01-12T16:37:05.146Z,5.82
2019-01-12T16:39:33.756Z,5.87
2019-01-12T16:42:02.679Z,5.74
2019-01-12T16:44:31.335Z,5.73
2019-01-12T16:46:59.987Z,5.75
2019-01-12T16:49:28.716Z,5.81
2019-01-12T16:51:57.389Z,5.83
2019-01-12T16:57:15.408Z,5.70
2019-01-12T16:59:44.116Z,5.63
2019-01-12T17:02:12.833Z,5.66
2019-01-12T17:04:41.589Z,5.78
2019-01-12T17:07:10.271Z,5.72
2019-01-12T17:09:39.052Z,5.66
2019-01-12T17:12:07.806Z,5.73
2019-01-12T17:14:36.543Z,5.77
2019-01-12T17:17:05.397Z,5.72
2019-01-12T17:19:34.152Z,5.69
2019-01-12T17:24:51.745Z,5.66
2019-01-12T17:27:23.903Z,5.66
2019-01-12T17:30:17.377Z,5.65
2019-01-12T17:35:23.447Z,5.55
2019-01-12T17:37:53.429Z,5.65
2019-01-12T17:40:39.196Z,5.77
2019-01-12T17:43:28.102Z,5.62
2019-01-12T17:52:21.324Z,5.62
2019-01-12T17:55:36.540Z,5.64
2019-01-12T18:00:56.897Z,5.66
2019-01-12T18:03:26.184Z,5.67
2019-01-12T18:08:56.753Z,5.58
2019-01-12T18:11:26.223Z,5.49
2019-01-12T18:13:55.166Z,5.53
2019-01-12T18:16:24.004Z,5.65
2019-01-12T18:19:13.018Z,5.50
2019-01-12T18:21:41.926Z,5.51
2019-01-12T18:24:31.501Z,5.63
2019-01-12T18:27:00.469Z,5.48
2019-01-12T18:32:51.438Z,5.44
2019-01-12T18:35:20.386Z,5.44
2019-01-12T18:43:30.827Z,5.36
2019-01-12T18:45:59.708Z,5.40
2019-01-12T18:48:28.649Z,5.41
2019-01-12T18:50:57.893Z,5.37
2019-01-12T18:57:07.976Z,5.55
2019-01-12T19:00:18.632Z,5.42
2019-01-12T19:02:45.786Z,5.47
2019-01-12T19:08:28.997Z,5.45
2019-01-12T19:11:24.074Z,5.46
2019-01-12T19:13:52.952Z,5.45
2019-01-12T19:16:40.912Z,5.47
2019-01-12T19:22:04.280Z,5.52
2019-01-12T19:24:33.239Z,5.56
2019-01-12T19:27:02.603Z,5.50
2019-01-12T19:29:31.911Z,5.43
2019-01-12T19:32:06.503Z,5.47
2019-01-12T19:34:35.336Z,5.42
2019-01-12T19:37:07.246Z,5.57
2019-01-12T19:39:36.097Z,5.51
2019-01-12T19:48:30.065Z,5.52
2019-01-12T19:54:47.892Z,5.57
2019-01-12T19:57:19.761Z,5.49
2019-01-12T20:03:03.444Z,5.51
2019-01-12T20:05:36.718Z,5.58
2019-01-12T20:08:05.736Z,5.59
2019-01-12T20:10:55.218Z,5.58
2019-01-12T20:13:25.084Z,5.68
2019-01-12T20:15:53.887Z,5.58
2019-01-12T20:18:44.557Z,5.53
2019-01-12T20:21:14.075Z,5.50
2019-01-12T20:26:47.002Z,5.55
2019-01-12T20:29:21.057Z,5.66
2019-01-12T20:32:25.830Z,5.61
2019-01-12T20:35:33.258Z,5.57
2019-01-12T20:41:52.220Z,5.57
2019-01-12T20:45:00.233Z,5.69
2019-01-12T20:48:09.059Z,5.65
2019-01-12T20:57:02.722Z,5.68
2019-01-12T20:59:53.959Z,5.81
2019-01-12T21:03:07.108Z,5.80
2019-01-12T21:06:06.918Z,5.78
2019-01-12T21:09:15.235Z,5.84
2019-01-12T21:12:23.381Z,5.86
2019-01-12T21:15:16.930Z,5.82
2019-01-12T21:17:45.928Z,5.81
2019-01-12T21:25:37.984Z,5.89
2019-01-12T21:28:07.634Z,5.88
2019-01-12T21:30:37.313Z,5.87
2019-01-12T21:33:15.418Z,5.97
2019-01-12T21:35:45.541Z,6.03
2019-01-12T21:38:15.692Z,6.02
2019-01-12T21:40:45.449Z,6.00
2019-01-12T21:49:03.960Z,5.81
2019-01-12T21:54:42.315Z,5.86
2019-01-12T22:00:59.129Z,5.96
2019-01-12T22:06:25.487Z,5.98
2019-01-12T22:08:55.872Z,6.08
2019-01-12T22:11:24.784Z,6.04
2019-01-12T22:13:53.983Z,5.98
2019-01-12T22:16:22.864Z,6.02
2019-01-12T22:18:54.416Z,6.05
2019-01-12T22:30:34.314Z,6.04
2019-01-12T22:35:59.139Z,6.03
2019-01-12T22:38:55.882Z,6.01
2019-01-12T22:40:58.724Z,6.15
2019-01-12T22:43:29.979Z,6.16
2019-01-12T22:45:58.876Z,6.08
2019-01-12T22:48:27.968Z,6.09
2019-01-12T22:54:41.450Z,6.06
2019-01-12T23:00:02.825Z,6.07
2019-01-12T23:02:32.289Z,6.11
2019-01-12T23:08:29.197Z,6.09
2019-01-12T23:11:17.145Z,6.24
2019-01-12T23:16:40.861Z,6.14
2019-01-12T23:19:09.711Z,6.10
2019-01-12T23:21:38.861Z,6.16
2019-01-12T23:24:07.912Z,6.13
2019-01-12T23:26:36.645Z,6.13
2019-01-12T23:29:27.027Z,6.10
2019-01-12T23:31:56.020Z,6.19
2019-01-12T23:34:25.278Z,6.14
2019-01-12T23:36:54.750Z,6.16
2019-01-12T23:39:23.511Z,6.16
2019-01-12T23:41:54.792Z,6.22
2019-01-12T23:44:23.653Z,6.28
2019-01-12T23:46:54.756Z,6.24
2019-01-12T23:49:42.790Z,6.24
2019-01-12T23:52:11.789Z,6.26
